sensor_id;sensor_type;location;lat;lon;timestamp;temperature;humidity
11583;DHT22;34299;50.820;4.548;2023-07-13T00:01:45;15.50;99.90
11583;DHT22;34299;50.820;4.548;2023-07-13T00:04:19;15.30;99.90
11583;DHT22;34299;50.820;4.548;2023-07-13T00:06:46;15.40;99.90
11583;DHT22;34299;50.820;4.548;2023-07-13T00:09:14;15.50;99.90
11583;DHT22;34299;50.820;4.548;2023-07-13T00:11:42;15.50;99.90
11583;DHT22;34299;50.820;4.548;2023-07-13T00:14:10;15.60;99.90
11583;DHT22;34299;50.820;4.548;2023-07-13T00:16:38;15.50;99.90
11583;DHT22;34299;50.820;4.548;2023-07-13T00:19:06;15.40;99.90
11583;DHT22;34299;50.820;4.548;2023-07-13T00:21:34;15.30;99.90
11583;DHT22;34299;50.820;4.548;2023-07-13T00:24:01;15.30;99.90
11583;DHT22;34299;50.820;4.548;2023-07-13T00:26:28;15.30;99.90
11583;DHT22;34299;50.820;4.548;2023-07-13T00:28:55;15.20;99.90
11583;DHT22;34299;50.820;4.548;2023-07-13T00:31:22;15.30;99.90
11583;DHT22;34299;50.820;4.548;2023-07-13T00:33:49;15.40;99.90
11583;DHT22;34299;50.820;4.548;2023-07-13T00:36:17;15.50;99.90
11583;DHT22;34299;50.820;4.548;2023-07-13T00:38:45;15.50;99.90
11583;DHT22;34299;50.820;4.548;2023-07-13T00:41:13;15.40;99.90
11583;DHT22;34299;50.820;4.548;2023-07-13T00:43:41;15.40;99.90
11583;DHT22;34299;50.820;4.548;2023-07-13T00:46:18;15.40;99.90
11583;DHT22;34299;50.820;4.548;2023-07-13T00:48:48;15.30;99.90
11583;DHT22;34299;50.820;4.548;2023-07-13T00:51:20;15.30;99.90
11583;DHT22;34299;50.820;4.548;2023-07-13T00:53:50;15.20;99.90
11583;DHT22;34299;50.820;4.548;2023-07-13T00:56:18;15.10;99.90
11583;DHT22;34299;50.820;4.548;2023-07-13T00:58:45;15.00;99.90
11583;DHT22;34299;50.820;4.548;2023-07-13T01:01:12;15.20;99.90
11583;DHT22;34299;50.820;4.548;2023-07-13T01:03:40;15.10;99.90
11583;DHT22;34299;50.820;4.548;2023-07-13T01:06:07;15.10;99.90
11583;DHT22;34299;50.820;4.548;2023-07-13T01:08:35;15.10;99.90
11583;DHT22;34299;50.820;4.548;2023-07-13T01:11:04;15.10;99.90
11583;DHT22;34299;50.820;4.548;2023-07-13T01:13:31;15.10;99.90
11583;DHT22;34299;50.820;4.548;2023-07-13T01:16:02;15.10;99.90
11583;DHT22;34299;50.820;4.548;2023-07-13T01:18:31;14.90;99.90
11583;DHT22;34299;50.820;4.548;2023-07-13T01:21:02;15.10;99.90
11583;DHT22;34299;50.820;4.548;2023-07-13T01:23:30;15.00;99.90
11583;DHT22;34299;50.820;4.548;2023-07-13T01:25:59;15.00;99.90
11583;DHT22;34299;50.820;4.548;2023-07-13T01:28:27;15.00;99.90
11583;DHT22;34299;50.820;4.548;2023-07-13T01:30:56;15.00;99.90
11583;DHT22;34299;50.820;4.548;2023-07-13T01:33:25;14.80;99.90
11583;DHT22;34299;50.820;4.548;2023-07-13T01:35:54;14.90;99.90
11583;DHT22;34299;50.820;4.548;2023-07-13T01:38:25;14.90;99.90
11583;DHT22;34299;50.820;4.548;2023-07-13T01:40:52;14.90;99.90
11583;DHT22;34299;50.820;4.548;2023-07-13T01:43:20;14.80;99.90
11583;DHT22;34299;50.820;4.548;2023-07-13T01:45:47;14.80;99.90
11583;DHT22;34299;50.820;4.548;2023-07-13T01:48:14;14.90;99.90
11583;DHT22;34299;50.820;4.548;2023-07-13T01:50:41;14.80;99.90
11583;DHT22;34299;50.820;4.548;2023-07-13T01:53:08;14.80;99.90
11583;DHT22;34299;50.820;4.548;2023-07-13T01:55:38;14.80;99.90
11583;DHT22;34299;50.820;4.548;2023-07-13T01:58:05;14.70;99.90
11583;DHT22;34299;50.820;4.548;2023-07-13T02:00:33;14.60;99.90
11583;DHT22;34299;50.820;4.548;2023-07-13T02:02:59;14.70;99.90
11583;DHT22;34299;50.820;4.548;2023-07-13T02:05:26;14.60;99.90
11583;DHT22;34299;50.820;4.548;2023-07-13T02:07:53;14.50;99.90
11583;DHT22;34299;50.820;4.548;2023-07-13T02:10:20;14.50;99.90
11583;DHT22;34299;50.820;4.548;2023-07-13T02:12:50;14.50;99.90
11583;DHT22;34299;50.820;4.548;2023-07-13T02:15:18;14.60;99.90
11583;DHT22;34299;50.820;4.548;2023-07-13T02:17:45;14.50;99.90
11583;DHT22;34299;50.820;4.548;2023-07-13T02:20:12;14.50;99.90
11583;DHT22;34299;50.820;4.548;2023-07-13T02:22:38;14.50;99.90
11583;DHT22;34299;50.820;4.548;2023-07-13T02:25:06;14.50;99.90
11583;DHT22;34299;50.820;4.548;2023-07-13T02:27:33;14.50;99.90
11583;DHT22;34299;50.820;4.548;2023-07-13T02:30:01;14.40;99.90
11583;DHT22;34299;50.820;4.548;2023-07-13T02:32:28;14.40;99.90
11583;DHT22;34299;50.820;4.548;2023-07-13T02:34:55;14.40;99.90
11583;DHT22;34299;50.820;4.548;2023-07-13T02:37:22;14.40;99.90
11583;DHT22;34299;50.820;4.548;2023-07-13T02:39:49;14.30;99.90
11583;DHT22;34299;50.820;4.548;2023-07-13T02:42:16;14.30;99.90
11583;DHT22;34299;50.820;4.548;2023-07-13T02:44:43;14.30;99.90
11583;DHT22;34299;50.820;4.548;2023-07-13T02:47:12;14.20;99.90
11583;DHT22;34299;50.820;4.548;2023-07-13T02:49:39;14.30;99.90
11583;DHT22;34299;50.820;4.548;2023-07-13T02:52:06;14.30;99.90
11583;DHT22;34299;50.820;4.548;2023-07-13T02:54:33;14.30;99.90
11583;DHT22;34299;50.820;4.548;2023-07-13T02:57:01;14.20;99.90
11583;DHT22;34299;50.820;4.548;2023-07-13T02:59:28;14.20;99.90
11583;DHT22;34299;50.820;4.548;2023-07-13T03:01:56;14.30;99.90
11583;DHT22;34299;50.820;4.548;2023-07-13T03:04:24;14.20;99.90
11583;DHT22;34299;50.820;4.548;2023-07-13T03:06:51;14.20;99.90
11583;DHT22;34299;50.820;4.548;2023-07-13T03:09:18;14.20;99.90
11583;DHT22;34299;50.820;4.548;2023-07-13T03:11:44;14.10;99.90
11583;DHT22;34299;50.820;4.548;2023-07-13T03:14:11;14.20;99.90
11583;DHT22;34299;50.820;4.548;2023-07-13T03:16:38;14.20;99.90
11583;DHT22;34299;50.820;4.548;2023-07-13T03:19:05;14.20;99.90
11583;DHT22;34299;50.820;4.548;2023-07-13T03:21:33;14.10;99.90
11583;DHT22;34299;50.820;4.548;2023-07-13T03:24:00;14.20;99.90
11583;DHT22;34299;50.820;4.548;2023-07-13T03:26:28;14.20;99.90
11583;DHT22;34299;50.820;4.548;2023-07-13T03:28:54;14.10;99.90
11583;DHT22;34299;50.820;4.548;2023-07-13T03:31:24;14.00;99.90
11583;DHT22;34299;50.820;4.548;2023-07-13T03:33:51;14.20;99.90
11583;DHT22;34299;50.820;4.548;2023-07-13T03:36:20;14.10;99.90
11583;DHT22;34299;50.820;4.548;2023-07-13T03:38:51;14.10;99.90
11583;DHT22;34299;50.820;4.548;2023-07-13T03:41:19;14.10;99.90
11583;DHT22;34299;50.820;4.548;2023-07-13T03:43:46;14.10;99.90
11583;DHT22;34299;50.820;4.548;2023-07-13T03:46:14;14.10;99.90
11583;DHT22;34299;50.820;4.548;2023-07-13T03:48:41;14.10;99.90
11583;DHT22;34299;50.820;4.548;2023-07-13T03:51:10;14.10;99.90
11583;DHT22;34299;50.820;4.548;2023-07-13T03:53:40;14.00;99.90
11583;DHT22;34299;50.820;4.548;2023-07-13T03:56:09;14.10;99.90
11583;DHT22;34299;50.820;4.548;2023-07-13T03:58:38;14.10;99.90
11583;DHT22;34299;50.820;4.548;2023-07-13T04:01:07;14.10;99.90
11583;DHT22;34299;50.820;4.548;2023-07-13T04:03:35;14.10;99.90
11583;DHT22;34299;50.820;4.548;2023-07-13T04:06:04;14.10;99.90
11583;DHT22;34299;50.820;4.548;2023-07-13T04:08:33;14.20;99.90
11583;DHT22;34299;50.820;4.548;2023-07-13T04:11:00;14.30;99.90
11583;DHT22;34299;50.820;4.548;2023-07-13T04:13:29;14.40;99.90
11583;DHT22;34299;50.820;4.548;2023-07-13T04:15:56;14.30;99.90
11583;DHT22;34299;50.820;4.548;2023-07-13T04:18:23;14.40;99.90
11583;DHT22;34299;50.820;4.548;2023-07-13T04:20:50;14.50;99.90
11583;DHT22;34299;50.820;4.548;2023-07-13T04:23:18;14.50;99.90
11583;DHT22;34299;50.820;4.548;2023-07-13T04:25:45;14.50;99.90
11583;DHT22;34299;50.820;4.548;2023-07-13T04:28:15;14.50;99.90
11583;DHT22;34299;50.820;4.548;2023-07-13T04:30:44;14.60;99.90
11583;DHT22;34299;50.820;4.548;2023-07-13T04:33:11;14.60;99.90
11583;DHT22;34299;50.820;4.548;2023-07-13T04:35:38;14.70;99.90
11583;DHT22;34299;50.820;4.548;2023-07-13T04:38:06;14.80;99.90
11583;DHT22;34299;50.820;4.548;2023-07-13T04:40:33;14.80;99.90
11583;DHT22;34299;50.820;4.548;2023-07-13T04:43:00;14.80;99.90
11583;DHT22;34299;50.820;4.548;2023-07-13T04:45:27;14.80;99.90
11583;DHT22;34299;50.820;4.548;2023-07-13T04:47:55;14.90;99.90
11583;DHT22;34299;50.820;4.548;2023-07-13T04:50:22;14.90;99.90
11583;DHT22;34299;50.820;4.548;2023-07-13T04:52:50;15.00;99.90
11583;DHT22;34299;50.820;4.548;2023-07-13T04:55:17;15.00;99.90
11583;DHT22;34299;50.820;4.548;2023-07-13T04:57:44;15.10;99.90
11583;DHT22;34299;50.820;4.548;2023-07-13T05:00:12;15.00;99.90
11583;DHT22;34299;50.820;4.548;2023-07-13T05:02:43;15.10;99.90
11583;DHT22;34299;50.820;4.548;2023-07-13T05:05:12;15.20;99.90
11583;DHT22;34299;50.820;4.548;2023-07-13T05:07:39;15.10;99.90
11583;DHT22;34299;50.820;4.548;2023-07-13T05:10:07;15.20;99.90
11583;DHT22;34299;50.820;4.548;2023-07-13T05:12:34;15.30;99.90
11583;DHT22;34299;50.820;4.548;2023-07-13T05:15:02;15.30;99.90
11583;DHT22;34299;50.820;4.548;2023-07-13T05:17:29;15.30;99.90
11583;DHT22;34299;50.820;4.548;2023-07-13T05:19:55;15.20;99.90
11583;DHT22;34299;50.820;4.548;2023-07-13T05:22:24;15.30;99.90
11583;DHT22;34299;50.820;4.548;2023-07-13T05:24:51;15.40;99.90
11583;DHT22;34299;50.820;4.548;2023-07-13T05:27:18;15.20;99.90
11583;DHT22;34299;50.820;4.548;2023-07-13T05:29:45;15.40;99.90
11583;DHT22;34299;50.820;4.548;2023-07-13T05:32:12;15.50;99.90
11583;DHT22;34299;50.820;4.548;2023-07-13T05:34:38;15.60;99.90
11583;DHT22;34299;50.820;4.548;2023-07-13T05:37:05;15.70;99.90
11583;DHT22;34299;50.820;4.548;2023-07-13T05:39:34;15.60;99.90
11583;DHT22;34299;50.820;4.548;2023-07-13T05:42:01;15.70;99.90
11583;DHT22;34299;50.820;4.548;2023-07-13T05:44:29;15.60;99.90
11583;DHT22;34299;50.820;4.548;2023-07-13T05:46:56;15.70;99.90
11583;DHT22;34299;50.820;4.548;2023-07-13T05:49:23;15.70;99.90
11583;DHT22;34299;50.820;4.548;2023-07-13T05:51:50;15.80;99.90
11583;DHT22;34299;50.820;4.548;2023-07-13T05:54:17;15.80;99.90
11583;DHT22;34299;50.820;4.548;2023-07-13T05:56:45;15.90;99.90
11583;DHT22;34299;50.820;4.548;2023-07-13T05:59:12;15.80;99.90
11583;DHT22;34299;50.820;4.548;2023-07-13T06:01:39;15.90;99.90
11583;DHT22;34299;50.820;4.548;2023-07-13T06:04:06;15.90;99.90
11583;DHT22;34299;50.820;4.548;2023-07-13T06:11:27;15.70;99.90
11583;DHT22;34299;50.820;4.548;2023-07-13T06:13:57;16.00;99.90
11583;DHT22;34299;50.820;4.548;2023-07-13T06:16:24;15.90;99.90
11583;DHT22;34299;50.820;4.548;2023-07-13T06:18:51;16.00;99.90
11583;DHT22;34299;50.820;4.548;2023-07-13T06:21:20;16.00;99.90
11583;DHT22;34299;50.820;4.548;2023-07-13T06:23:49;16.00;99.90
11583;DHT22;34299;50.820;4.548;2023-07-13T06:26:18;16.10;99.90
11583;DHT22;34299;50.820;4.548;2023-07-13T06:28:45;16.20;99.90
11583;DHT22;34299;50.820;4.548;2023-07-13T06:31:14;16.20;99.90
11583;DHT22;34299;50.820;4.548;2023-07-13T06:33:41;16.40;99.90
11583;DHT22;34299;50.820;4.548;2023-07-13T06:36:09;16.30;99.90
11583;DHT22;34299;50.820;4.548;2023-07-13T06:48:28;16.60;99.90
11583;DHT22;34299;50.820;4.548;2023-07-13T06:50:55;17.00;99.90
11583;DHT22;34299;50.820;4.548;2023-07-13T06:58:17;17.00;99.90
11583;DHT22;34299;50.820;4.548;2023-07-13T07:00:45;17.20;99.90
11583;DHT22;34299;50.820;4.548;2023-07-13T07:03:12;17.20;99.90
11583;DHT22;34299;50.820;4.548;2023-07-13T07:05:40;17.10;99.90
11583;DHT22;34299;50.820;4.548;2023-07-13T07:08:07;17.40;99.90
11583;DHT22;34299;50.820;4.548;2023-07-13T07:15:30;17.30;99.90
11583;DHT22;34299;50.820;4.548;2023-07-13T08:41:36;17.60;99.90
11583;DHT22;34299;50.820;4.548;2023-07-13T08:44:07;19.50;99.90
11583;DHT22;34299;50.820;4.548;2023-07-13T08:46:42;19.90;99.90
11583;DHT22;34299;50.820;4.548;2023-07-13T08:49:13;19.50;99.90
11583;DHT22;34299;50.820;4.548;2023-07-13T08:51:44;19.60;99.90
11583;DHT22;34299;50.820;4.548;2023-07-13T08:54:19;19.80;99.90
11583;DHT22;34299;50.820;4.548;2023-07-13T08:56:46;20.00;99.90
11583;DHT22;34299;50.820;4.548;2023-07-13T08:59:16;19.70;99.90
11583;DHT22;34299;50.820;4.548;2023-07-13T09:02:20;19.60;99.90
11583;DHT22;34299;50.820;4.548;2023-07-13T09:20:00;19.60;99.90
11583;DHT22;34299;50.820;4.548;2023-07-13T09:22:31;19.70;99.90
11583;DHT22;34299;50.820;4.548;2023-07-13T09:25:04;19.80;99.90
11583;DHT22;34299;50.820;4.548;2023-07-13T09:27:37;20.10;99.90
11583;DHT22;34299;50.820;4.548;2023-07-13T09:30:20;20.10;99.90
11583;DHT22;34299;50.820;4.548;2023-07-13T09:32:52;20.60;99.90
11583;DHT22;34299;50.820;4.548;2023-07-13T09:40:23;20.70;99.90
11583;DHT22;34299;50.820;4.548;2023-07-13T09:42:52;20.30;99.90
11583;DHT22;34299;50.820;4.548;2023-07-13T09:45:27;20.10;99.90
11583;DHT22;34299;50.820;4.548;2023-07-13T10:45:18;20.10;99.90
11583;DHT22;34299;50.820;4.548;2023-07-13T11:08:16;21.60;99.90
11583;DHT22;34299;50.820;4.548;2023-07-13T11:10:50;22.30;99.90
11583;DHT22;34299;50.820;4.548;2023-07-13T11:23:51;22.10;99.90
11583;DHT22;34299;50.820;4.548;2023-07-13T13:14:09;23.50;99.90
11583;DHT22;34299;50.820;4.548;2023-07-13T13:16:43;19.00;99.90
11583;DHT22;34299;50.820;4.548;2023-07-13T13:21:42;19.00;99.90
11583;DHT22;34299;50.820;4.548;2023-07-13T14:16:11;20.40;99.90
11583;DHT22;34299;50.820;4.548;2023-07-13T14:18:39;24.00;99.90
11583;DHT22;34299;50.820;4.548;2023-07-13T15:37:54;24.60;99.90
11583;DHT22;34299;50.820;4.548;2023-07-13T15:45:22;25.00;99.90
11583;DHT22;34299;50.820;4.548;2023-07-13T15:50:19;28.00;99.90
11583;DHT22;34299;50.820;4.548;2023-07-13T15:52:49;28.70;99.90
11583;DHT22;34299;50.820;4.548;2023-07-13T15:55:16;27.80;99.90
11583;DHT22;34299;50.820;4.548;2023-07-13T16:12:40;30.30;99.90
11583;DHT22;34299;50.820;4.548;2023-07-13T16:15:12;30.50;99.90
11583;DHT22;34299;50.820;4.548;2023-07-13T16:17:39;29.50;99.90
11583;DHT22;34299;50.820;4.548;2023-07-13T16:20:08;30.50;99.90
11583;DHT22;34299;50.820;4.548;2023-07-13T16:22:37;30.10;99.90
11583;DHT22;34299;50.820;4.548;2023-07-13T16:25:15;30.30;99.80
11583;DHT22;34299;50.820;4.548;2023-07-13T16:27:44;30.20;99.90
11583;DHT22;34299;50.820;4.548;2023-07-13T16:30:19;31.00;99.90
11583;DHT22;34299;50.820;4.548;2023-07-13T16:32:47;30.20;99.90
11583;DHT22;34299;50.820;4.548;2023-07-13T16:37:44;32.70;99.90
11583;DHT22;34299;50.820;4.548;2023-07-13T16:40:20;32.00;98.10
11583;DHT22;34299;50.820;4.548;2023-07-13T16:42:49;30.90;97.60
11583;DHT22;34299;50.820;4.548;2023-07-13T16:45:18;30.80;99.10
11583;DHT22;34299;50.820;4.548;2023-07-13T16:47:46;31.40;99.30
11583;DHT22;34299;50.820;4.548;2023-07-13T16:50:15;30.80;98.70
11583;DHT22;34299;50.820;4.548;2023-07-13T16:52:42;30.20;99.40
11583;DHT22;34299;50.820;4.548;2023-07-13T16:55:10;29.90;99.50
11583;DHT22;34299;50.820;4.548;2023-07-13T16:57:37;29.70;99.40
11583;DHT22;34299;50.820;4.548;2023-07-13T17:00:16;29.60;98.70
11583;DHT22;34299;50.820;4.548;2023-07-13T17:02:47;29.70;99.90
11583;DHT22;34299;50.820;4.548;2023-07-13T17:05:14;29.20;99.90
11583;DHT22;34299;50.820;4.548;2023-07-13T17:07:42;26.60;99.90
11583;DHT22;34299;50.820;4.548;2023-07-13T17:10:17;26.70;99.90
11583;DHT22;34299;50.820;4.548;2023-07-13T17:20:22;25.60;99.90
11583;DHT22;34299;50.820;4.548;2023-07-13T17:22:51;25.20;99.90
11583;DHT22;34299;50.820;4.548;2023-07-13T17:25:20;26.70;99.90
11583;DHT22;34299;50.820;4.548;2023-07-13T17:27:47;26.50;99.90
11583;DHT22;34299;50.820;4.548;2023-07-13T17:30:15;26.10;99.90
11583;DHT22;34299;50.820;4.548;2023-07-13T17:32:43;26.10;99.90
11583;DHT22;34299;50.820;4.548;2023-07-13T17:35:21;27.50;99.90
11583;DHT22;34299;50.820;4.548;2023-07-13T17:37:49;27.90;99.90
11583;DHT22;34299;50.820;4.548;2023-07-13T17:40:16;28.50;99.90
11583;DHT22;34299;50.820;4.548;2023-07-13T17:42:44;28.10;99.90
11583;DHT22;34299;50.820;4.548;2023-07-13T17:45:12;28.30;99.90
11583;DHT22;34299;50.820;4.548;2023-07-13T17:47:45;28.20;99.90
11583;DHT22;34299;50.820;4.548;2023-07-13T17:50:16;28.80;99.90
11583;DHT22;34299;50.820;4.548;2023-07-13T17:52:46;28.80;99.90
11583;DHT22;34299;50.820;4.548;2023-07-13T18:00:10;28.00;99.90
11583;DHT22;34299;50.820;4.548;2023-07-13T18:02:53;25.40;99.90
11583;DHT22;34299;50.820;4.548;2023-07-13T18:05:22;26.10;99.90
11583;DHT22;34299;50.820;4.548;2023-07-13T18:10:19;25.80;99.90
11583;DHT22;34299;50.820;4.548;2023-07-13T18:12:49;27.00;99.90
11583;DHT22;34299;50.820;4.548;2023-07-13T18:15:20;27.20;99.90
11583;DHT22;34299;50.820;4.548;2023-07-13T18:17:48;27.60;99.90
11583;DHT22;34299;50.820;4.548;2023-07-13T18:20:17;26.70;99.90
11583;DHT22;34299;50.820;4.548;2023-07-13T18:22:47;26.00;99.90
11583;DHT22;34299;50.820;4.548;2023-07-13T18:25:17;26.30;99.90
11583;DHT22;34299;50.820;4.548;2023-07-13T18:27:44;25.60;99.90
11583;DHT22;34299;50.820;4.548;2023-07-13T18:30:14;25.10;99.90
11583;DHT22;34299;50.820;4.548;2023-07-13T18:32:43;24.90;99.90
11583;DHT22;34299;50.820;4.548;2023-07-13T18:35:15;24.00;99.90
11583;DHT22;34299;50.820;4.548;2023-07-13T18:37:44;23.90;99.90
11583;DHT22;34299;50.820;4.548;2023-07-13T18:40:16;23.80;99.90
11583;DHT22;34299;50.820;4.548;2023-07-13T18:42:46;23.50;99.90
11583;DHT22;34299;50.820;4.548;2023-07-13T18:45:14;23.40;99.90
11583;DHT22;34299;50.820;4.548;2023-07-13T18:47:42;23.10;99.90
11583;DHT22;34299;50.820;4.548;2023-07-13T18:50:15;23.10;99.90
11583;DHT22;34299;50.820;4.548;2023-07-13T18:52:44;22.80;99.90
11583;DHT22;34299;50.820;4.548;2023-07-13T18:55:17;22.60;99.90
11583;DHT22;34299;50.820;4.548;2023-07-13T18:57:45;22.50;99.90
11583;DHT22;34299;50.820;4.548;2023-07-13T19:00:13;22.30;99.90
11583;DHT22;34299;50.820;4.548;2023-07-13T19:02:41;22.60;99.90
11583;DHT22;34299;50.820;4.548;2023-07-13T19:05:16;22.20;99.90
11583;DHT22;34299;50.820;4.548;2023-07-13T19:07:43;22.00;99.90
11583;DHT22;34299;50.820;4.548;2023-07-13T19:10:16;21.90;99.90
11583;DHT22;34299;50.820;4.548;2023-07-13T19:12:46;21.70;99.90
11583;DHT22;34299;50.820;4.548;2023-07-13T19:15:24;21.60;99.90
11583;DHT22;34299;50.820;4.548;2023-07-13T19:17:52;21.50;99.90
11583;DHT22;34299;50.820;4.548;2023-07-13T19:20:20;21.40;99.90
11583;DHT22;34299;50.820;4.548;2023-07-13T19:22:53;21.20;99.90
11583;DHT22;34299;50.820;4.548;2023-07-13T19:25:22;21.00;99.90
11583;DHT22;34299;50.820;4.548;2023-07-13T19:27:59;20.80;99.90
11583;DHT22;34299;50.820;4.548;2023-07-13T19:30:28;20.90;99.90
11583;DHT22;34299;50.820;4.548;2023-07-13T19:32:56;20.80;99.90
11583;DHT22;34299;50.820;4.548;2023-07-13T19:35:25;21.00;99.90
11583;DHT22;34299;50.820;4.548;2023-07-13T19:37:53;20.90;99.90
11583;DHT22;34299;50.820;4.548;2023-07-13T19:40:25;20.80;99.90
11583;DHT22;34299;50.820;4.548;2023-07-13T19:42:54;20.90;99.90
11583;DHT22;34299;50.820;4.548;2023-07-13T19:45:22;20.90;99.90
11583;DHT22;34299;50.820;4.548;2023-07-13T19:47:49;20.70;99.90
11583;DHT22;34299;50.820;4.548;2023-07-13T19:50:17;20.60;99.90
11583;DHT22;34299;50.820;4.548;2023-07-13T19:52:47;20.60;99.90
11583;DHT22;34299;50.820;4.548;2023-07-13T19:55:18;20.60;99.90
11583;DHT22;34299;50.820;4.548;2023-07-13T19:57:49;20.60;99.90
11583;DHT22;34299;50.820;4.548;2023-07-13T20:00:18;20.50;99.90
11583;DHT22;34299;50.820;4.548;2023-07-13T20:02:48;20.50;99.90
11583;DHT22;34299;50.820;4.548;2023-07-13T20:05:18;20.40;99.90
11583;DHT22;34299;50.820;4.548;2023-07-13T20:07:50;20.30;99.90
11583;DHT22;34299;50.820;4.548;2023-07-13T20:10:23;20.30;99.90
11583;DHT22;34299;50.820;4.548;2023-07-13T20:12:53;20.40;99.90
11583;DHT22;34299;50.820;4.548;2023-07-13T20:15:21;20.40;99.90
11583;DHT22;34299;50.820;4.548;2023-07-13T20:17:51;20.20;99.90
11583;DHT22;34299;50.820;4.548;2023-07-13T20:20:21;20.20;99.90
11583;DHT22;34299;50.820;4.548;2023-07-13T20:22:49;20.10;99.90
11583;DHT22;34299;50.820;4.548;2023-07-13T20:25:19;20.20;99.90
11583;DHT22;34299;50.820;4.548;2023-07-13T20:27:47;20.00;99.90
11583;DHT22;34299;50.820;4.548;2023-07-13T20:30:16;19.90;99.90
11583;DHT22;34299;50.820;4.548;2023-07-13T20:32:43;19.90;99.90
11583;DHT22;34299;50.820;4.548;2023-07-13T20:35:25;19.90;99.90
11583;DHT22;34299;50.820;4.548;2023-07-13T20:37:53;19.80;99.90
11583;DHT22;34299;50.820;4.548;2023-07-13T20:40:22;19.80;99.90
11583;DHT22;34299;50.820;4.548;2023-07-13T20:42:49;19.50;99.90
11583;DHT22;34299;50.820;4.548;2023-07-13T20:45:18;19.60;99.90
11583;DHT22;34299;50.820;4.548;2023-07-13T20:47:46;19.70;99.90
11583;DHT22;34299;50.820;4.548;2023-07-13T20:50:20;19.60;99.90
11583;DHT22;34299;50.820;4.548;2023-07-13T20:52:51;19.40;99.90
11583;DHT22;34299;50.820;4.548;2023-07-13T20:55:20;19.50;99.90
11583;DHT22;34299;50.820;4.548;2023-07-13T20:57:47;19.40;99.90
11583;DHT22;34299;50.820;4.548;2023-07-13T21:00:16;19.40;99.90
11583;DHT22;34299;50.820;4.548;2023-07-13T21:02:46;19.30;99.90
11583;DHT22;34299;50.820;4.548;2023-07-13T21:05:17;19.40;99.90
11583;DHT22;34299;50.820;4.548;2023-07-13T21:07:45;19.40;99.90
11583;DHT22;34299;50.820;4.548;2023-07-13T21:10:15;19.30;99.90
11583;DHT22;34299;50.820;4.548;2023-07-13T21:12:42;19.10;99.90
11583;DHT22;34299;50.820;4.548;2023-07-13T21:15:09;19.10;99.90
11583;DHT22;34299;50.820;4.548;2023-07-13T21:17:38;19.20;99.90
11583;DHT22;34299;50.820;4.548;2023-07-13T21:20:15;19.10;99.90
11583;DHT22;34299;50.820;4.548;2023-07-13T21:22:43;19.10;99.90
11583;DHT22;34299;50.820;4.548;2023-07-13T21:25:15;19.10;99.90
11583;DHT22;34299;50.820;4.548;2023-07-13T21:27:42;19.10;99.90
11583;DHT22;34299;50.820;4.548;2023-07-13T21:30:13;18.90;99.90
11583;DHT22;34299;50.820;4.548;2023-07-13T21:32:41;18.80;99.90
11583;DHT22;34299;50.820;4.548;2023-07-13T21:35:19;18.80;99.90
11583;DHT22;34299;50.820;4.548;2023-07-13T21:37:47;18.70;99.90
11583;DHT22;34299;50.820;4.548;2023-07-13T21:40:15;18.50;99.90
11583;DHT22;34299;50.820;4.548;2023-07-13T21:42:43;18.40;99.90
11583;DHT22;34299;50.820;4.548;2023-07-13T21:45:19;18.50;99.90
11583;DHT22;34299;50.820;4.548;2023-07-13T21:47:47;18.60;99.90
11583;DHT22;34299;50.820;4.548;2023-07-13T21:50:16;18.50;99.90
11583;DHT22;34299;50.820;4.548;2023-07-13T21:52:43;18.50;99.90
11583;DHT22;34299;50.820;4.548;2023-07-13T21:55:16;18.50;99.90
11583;DHT22;34299;50.820;4.548;2023-07-13T21:57:47;18.50;99.90
11583;DHT22;34299;50.820;4.548;2023-07-13T22:00:18;18.50;99.90
11583;DHT22;34299;50.820;4.548;2023-07-13T22:02:47;18.40;99.90
11583;DHT22;34299;50.820;4.548;2023-07-13T22:05:16;18.40;99.90
11583;DHT22;34299;50.820;4.548;2023-07-13T22:07:44;18.30;99.90
11583;DHT22;34299;50.820;4.548;2023-07-13T22:10:16;18.20;99.90
11583;DHT22;34299;50.820;4.548;2023-07-13T22:12:44;18.00;99.90
11583;DHT22;34299;50.820;4.548;2023-07-13T22:15:12;18.00;99.90
11583;DHT22;34299;50.820;4.548;2023-07-13T22:17:45;18.10;99.90
11583;DHT22;34299;50.820;4.548;2023-07-13T22:20:19;17.90;99.90
11583;DHT22;34299;50.820;4.548;2023-07-13T22:22:49;17.90;99.90
11583;DHT22;34299;50.820;4.548;2023-07-13T22:25:16;17.80;99.90
11583;DHT22;34299;50.820;4.548;2023-07-13T22:27:44;17.80;99.90
11583;DHT22;34299;50.820;4.548;2023-07-13T22:30:13;17.80;99.90
11583;DHT22;34299;50.820;4.548;2023-07-13T22:32:41;17.60;99.90
11583;DHT22;34299;50.820;4.548;2023-07-13T22:35:11;17.70;99.90
11583;DHT22;34299;50.820;4.548;2023-07-13T22:37:39;17.60;99.90
11583;DHT22;34299;50.820;4.548;2023-07-13T22:40:11;17.60;99.90
11583;DHT22;34299;50.820;4.548;2023-07-13T22:42:40;17.60;99.90
11583;DHT22;34299;50.820;4.548;2023-07-13T22:45:09;17.60;99.90
11583;DHT22;34299;50.820;4.548;2023-07-13T22:47:37;17.60;99.90
11583;DHT22;34299;50.820;4.548;2023-07-13T22:50:13;17.70;99.90
11583;DHT22;34299;50.820;4.548;2023-07-13T22:52:43;17.70;99.90
11583;DHT22;34299;50.820;4.548;2023-07-13T22:55:12;17.70;99.90
11583;DHT22;34299;50.820;4.548;2023-07-13T22:57:40;17.60;99.90
11583;DHT22;34299;50.820;4.548;2023-07-13T23:00:16;17.60;99.90
11583;DHT22;34299;50.820;4.548;2023-07-13T23:02:43;17.70;99.90
11583;DHT22;34299;50.820;4.548;2023-07-13T23:05:14;17.60;99.90
11583;DHT22;34299;50.820;4.548;2023-07-13T23:07:42;17.70;99.90
11583;DHT22;34299;50.820;4.548;2023-07-13T23:10:15;17.70;99.90
11583;DHT22;34299;50.820;4.548;2023-07-13T23:12:42;17.70;99.90
11583;DHT22;34299;50.820;4.548;2023-07-13T23:15:12;17.70;99.90
11583;DHT22;34299;50.820;4.548;2023-07-13T23:17:44;17.60;99.90
11583;DHT22;34299;50.820;4.548;2023-07-13T23:20:22;17.50;99.90
11583;DHT22;34299;50.820;4.548;2023-07-13T23:22:51;17.40;99.90
11583;DHT22;34299;50.820;4.548;2023-07-13T23:25:18;17.40;99.90
11583;DHT22;34299;50.820;4.548;2023-07-13T23:27:48;17.40;99.90
11583;DHT22;34299;50.820;4.548;2023-07-13T23:30:17;17.40;99.90
11583;DHT22;34299;50.820;4.548;2023-07-13T23:32:46;17.30;99.90
11583;DHT22;34299;50.820;4.548;2023-07-13T23:35:15;17.20;99.90
11583;DHT22;34299;50.820;4.548;2023-07-13T23:37:44;17.20;99.90
11583;DHT22;34299;50.820;4.548;2023-07-13T23:40:16;17.30;99.90
11583;DHT22;34299;50.820;4.548;2023-07-13T23:42:44;17.10;99.90
11583;DHT22;34299;50.820;4.548;2023-07-13T23:45:15;17.10;99.90
11583;DHT22;34299;50.820;4.548;2023-07-13T23:47:45;17.00;99.90
11583;DHT22;34299;50.820;4.548;2023-07-13T23:50:14;17.00;99.90
11583;DHT22;34299;50.820;4.548;2023-07-13T23:52:41;17.10;99.90
11583;DHT22;34299;50.820;4.548;2023-07-13T23:55:16;16.90;99.90
11583;DHT22;34299;50.820;4.548;2023-07-13T23:57:44;16.90;99.90
